Time;durP1;ratioP1;P1;durP2;ratioP2;P2;SDS_P1;SDS_P2;PMS_P1;PMS_P2;Temp;Humidity;BMP_temperature;BMP_pressure;BME280_temperature;BME280_humidity;BME280_pressure;Samples;Min_cycle;Max_cycle;Signal;HPM_P1;HPM_P2
2022/12/20 00:01:08;;;;;;;6.03;3.20;;;9.10;99.90;;;;;;5089132;28;20088;-68
2022/12/20 00:03:34;;;;;;;4.82;3.00;;;9.10;99.90;;;;;;5087062;28;20047;-68
2022/12/20 00:06:00;;;;;;;5.28;3.63;;;9.10;99.90;;;;;;5121080;27;20036;-68
2022/12/20 00:08:25;;;;;;;5.72;3.85;;;9.20;99.90;;;;;;5088839;28;20078;-68
2022/12/20 00:10:51;;;;;;;5.13;3.10;;;9.10;99.90;;;;;;5088664;28;20114;-69
2022/12/20 00:13:17;;;;;;;5.47;3.35;;;9.10;99.90;;;;;;5090954;28;20065;-68
2022/12/20 00:15:42;;;;;;;5.25;2.95;;;9.10;99.90;;;;;;5089257;28;20080;-68
2022/12/20 00:18:08;;;;;;;4.03;2.97;;;9.10;99.90;;;;;;5087630;28;20055;-68
2022/12/20 00:20:34;;;;;;;4.65;2.85;;;9.10;99.90;;;;;;5093811;28;20054;-68
2022/12/20 00:23:00;;;;;;;3.97;2.85;;;9.10;99.90;;;;;;5109055;27;20040;-68
2022/12/20 00:25:26;;;;;;;5.32;3.10;;;9.20;99.90;;;;;;5110882;27;20040;-69
2022/12/20 00:27:52;;;;;;;5.78;2.80;;;9.20;99.90;;;;;;5125514;27;20042;-68
2022/12/20 00:30:18;;;;;;;4.18;2.97;;;9.20;99.90;;;;;;5108918;28;20040;-68
2022/12/20 00:32:44;;;;;;;3.38;2.97;;;9.20;99.90;;;;;;5090772;28;20080;-68
2022/12/20 00:35:10;;;;;;;4.90;2.70;;;9.20;99.90;;;;;;5127899;27;20051;-68
2022/12/20 00:37:36;;;;;;;5.18;3.13;;;9.20;99.90;;;;;;5125673;27;20039;-68
2022/12/20 00:40:03;;;;;;;4.18;2.50;;;9.20;99.90;;;;;;5113313;28;20031;-68
2022/12/20 00:42:29;;;;;;;4.15;2.97;;;9.20;99.90;;;;;;5110104;27;20028;-68
2022/12/20 00:44:55;;;;;;;4.38;3.05;;;9.20;99.90;;;;;;5095075;28;20176;-69
2022/12/20 00:47:20;;;;;;;3.20;2.83;;;9.20;99.90;;;;;;5093755;28;20035;-68
2022/12/20 00:49:46;;;;;;;4.53;2.83;;;9.10;99.90;;;;;;5094449;28;20039;-68
2022/12/20 00:52:11;;;;;;;4.85;3.20;;;9.20;99.90;;;;;;5087152;27;20047;-69
2022/12/20 00:54:37;;;;;;;3.60;2.85;;;9.10;99.90;;;;;;5115789;27;20673;-68
2022/12/20 00:57:03;;;;;;;6.50;3.10;;;9.10;99.90;;;;;;5094543;27;20395;-68
2022/12/20 00:59:28;;;;;;;6.13;2.92;;;9.10;99.90;;;;;;5092588;28;20181;-68
2022/12/20 01:01:54;;;;;;;4.20;2.78;;;9.10;99.90;;;;;;5092083;28;20042;-68
2022/12/20 01:04:19;;;;;;;7.05;2.85;;;9.10;99.90;;;;;;5093332;28;20036;-68
2022/12/20 01:06:45;;;;;;;5.68;3.08;;;9.10;99.90;;;;;;5093650;28;20054;-68
2022/12/20 01:09:11;;;;;;;6.45;2.80;;;9.10;99.90;;;;;;5093584;28;20154;-68
2022/12/20 01:11:38;;;;;;;7.38;3.17;;;9.10;99.90;;;;;;5110986;28;20402;-68
2022/12/20 01:14:09;;;;;;;5.03;2.90;;;9.10;99.90;;;;;;5124969;27;20517;-68
2022/12/20 01:16:37;;;;;;;4.30;3.13;;;9.10;99.90;;;;;;5094076;28;20665;-68
2022/12/20 01:19:04;;;;;;;4.72;2.92;;;9.10;99.90;;;;;;5110960;27;20054;-68
2022/12/20 01:21:29;;;;;;;4.82;3.00;;;9.10;99.90;;;;;;5094147;28;20047;-68
2022/12/20 01:23:55;;;;;;;4.55;3.38;;;9.10;99.90;;;;;;5109871;27;20100;-68
2022/12/20 01:26:23;;;;;;;3.38;2.70;;;9.10;99.90;;;;;;5128279;27;20463;-68
2022/12/20 01:28:52;;;;;;;4.45;2.92;;;9.10;99.90;;;;;;5076009;27;20090;-68
2022/12/20 01:31:19;;;;;;;4.68;2.90;;;9.10;99.90;;;;;;5127340;27;20035;-69
2022/12/20 01:33:46;;;;;;;4.53;3.10;;;9.10;99.90;;;;;;5125370;27;20035;-68
2022/12/20 01:36:15;;;;;;;3.38;2.63;;;9.20;99.90;;;;;;5093149;28;20035;-68
2022/12/20 01:38:41;;;;;;;4.35;2.67;;;9.10;99.90;;;;;;5094870;28;20044;-68
2022/12/20 01:41:07;;;;;;;4.32;2.53;;;9.20;99.90;;;;;;5091804;28;20092;-69
2022/12/20 01:43:52;;;;;;;5.85;2.85;;;9.20;99.90;;;;;;5126485;27;20036;-68
2022/12/20 01:46:20;;;;;;;3.80;2.75;;;9.20;99.90;;;;;;5095241;28;20093;-67
2022/12/20 01:48:55;;;;;;;3.75;2.90;;;9.20;99.90;;;;;;5093644;28;20040;-68
2022/12/20 01:51:23;;;;;;;5.20;2.88;;;9.20;99.90;;;;;;5127823;27;20502;-68
2022/12/20 01:53:55;;;;;;;3.90;2.75;;;9.20;99.90;;;;;;5125661;27;20523;-68
2022/12/20 01:56:21;;;;;;;3.15;2.28;;;9.30;99.90;;;;;;5088771;28;20073;-68
2022/12/20 01:58:50;;;;;;;4.30;2.88;;;9.30;99.90;;;;;;5125672;27;20044;-68
2022/12/20 02:01:15;;;;;;;6.07;3.00;;;9.30;99.90;;;;;;5092284;28;20043;-68
2022/12/20 02:03:42;;;;;;;3.25;2.65;;;9.30;99.90;;;;;;5092172;28;20042;-68
2022/12/20 02:06:19;;;;;;;4.35;2.70;;;9.30;99.90;;;;;;5123684;27;20440;-68
2022/12/20 02:08:47;;;;;;;4.22;2.60;;;9.30;99.90;;;;;;5091834;28;20381;-68
2022/12/20 02:11:22;;;;;;;3.72;2.33;;;9.40;99.90;;;;;;5090927;28;20050;-68
2022/12/20 02:14:13;;;;;;;5.38;2.72;;;9.40;99.90;;;;;;5127038;27;20039;-68
2022/12/20 02:16:48;;;;;;;4.60;2.50;;;9.40;99.90;;;;;;5106905;27;20150;-68
2022/12/20 02:19:56;;;;;;;2.78;2.33;;;9.50;99.90;;;;;;5091732;27;20058;-68
2022/12/20 02:22:33;;;;;;;3.85;2.30;;;9.50;99.90;;;;;;5031122;28;20049;-68
2022/12/20 02:25:12;;;;;;;3.55;2.20;;;9.50;99.90;;;;;;5030119;28;20049;-68
2022/12/20 02:27:48;;;;;;;3.30;2.40;;;9.50;99.90;;;;;;5029214;28;20053;-68
2022/12/20 02:30:17;;;;;;;6.57;2.92;;;9.60;99.90;;;;;;5030693;28;20094;-68
2022/12/20 02:32:59;;;;;;;3.83;2.83;;;9.60;99.90;;;;;;5029063;28;20049;-68
2022/12/20 02:35:30;;;;;;;3.28;2.50;;;9.60;99.90;;;;;;5028180;28;20048;-68
2022/12/20 02:38:02;;;;;;;2.88;2.25;;;9.60;99.90;;;;;;5030192;28;20084;-67
2022/12/20 02:40:33;;;;;;;;;;;9.60;99.90;;;;;;5029180;28;20060;-68
2022/12/20 02:43:02;;;;;;;4.82;2.92;;;9.60;99.90;;;;;;5029812;28;19928;-67
2022/12/20 02:45:34;;;;;;;5.80;2.60;;;9.60;99.90;;;;;;5046437;28;20045;-67
2022/12/20 02:48:08;;;;;;;6.70;2.80;;;9.50;99.90;;;;;;5060619;28;20129;-68
2022/12/20 02:50:45;;;;;;;6.05;3.22;;;9.50;99.90;;;;;;5013631;28;20114;-67
2022/12/20 02:53:11;;;;;;;6.30;3.10;;;9.50;99.90;;;;;;5024497;28;20059;-67
2022/12/20 02:55:55;;;;;;;5.20;2.80;;;9.40;99.90;;;;;;5024908;28;20114;-68
2022/12/20 02:58:48;;;;;;;4.95;2.63;;;9.40;99.90;;;;;;5028563;28;20068;-67
2022/12/20 03:01:21;;;;;;;7.20;2.95;;;9.40;99.90;;;;;;5119548;27;20052;-67
2022/12/20 03:03:48;;;;;;;5.70;2.90;;;9.40;99.90;;;;;;5089256;27;20046;-68
2022/12/20 03:06:14;;;;;;;3.92;2.95;;;9.40;99.90;;;;;;5118674;27;20043;-67
2022/12/20 03:08:40;;;;;;;6.18;3.20;;;9.40;99.90;;;;;;5082414;27;20509;-67
2022/12/20 03:11:05;;;;;;;5.43;3.05;;;9.40;99.90;;;;;;5083402;28;20039;-68
2022/12/20 03:13:31;;;;;;;6.70;3.83;;;9.40;99.90;;;;;;5101327;27;20146;-67
2022/12/20 03:15:56;;;;;;;8.57;3.13;;;9.40;99.90;;;;;;5117889;27;20410;-68
2022/12/20 03:18:22;;;;;;;5.25;2.88;;;9.40;99.90;;;;;;5083605;28;20390;-67
2022/12/20 03:20:48;;;;;;;5.22;3.10;;;9.40;99.90;;;;;;5116848;27;20051;-67
2022/12/20 03:23:13;;;;;;;5.97;3.28;;;9.30;99.90;;;;;;5121488;27;20122;-67
2022/12/20 03:25:39;;;;;;;5.40;2.85;;;9.40;99.90;;;;;;5116887;27;20040;-67
2022/12/20 03:28:05;;;;;;;7.97;3.80;;;9.40;99.90;;;;;;5116743;27;20390;-67
2022/12/20 03:30:30;;;;;;;5.70;3.17;;;9.30;99.90;;;;;;5083016;27;20036;-67
2022/12/20 03:32:57;;;;;;;4.75;3.20;;;9.30;99.90;;;;;;5091587;27;20455;-67
2022/12/20 03:35:22;;;;;;;4.88;2.95;;;9.30;99.90;;;;;;5089682;28;20062;-68
2022/12/20 03:37:48;;;;;;;4.32;3.17;;;9.30;99.90;;;;;;5085714;28;20047;-67
2022/12/20 03:40:15;;;;;;;5.60;3.17;;;9.30;99.90;;;;;;5092248;28;20043;-68
2022/12/20 03:42:40;;;;;;;5.40;3.30;;;9.30;99.90;;;;;;5125128;27;20044;-68
2022/12/20 03:45:06;;;;;;;4.53;2.88;;;9.30;99.90;;;;;;5121351;27;20085;-67
2022/12/20 03:47:32;;;;;;;4.88;3.17;;;9.30;99.90;;;;;;5116802;27;20035;-67
2022/12/20 03:49:58;;;;;;;4.53;3.42;;;9.30;99.90;;;;;;5114595;27;20451;-67
2022/12/20 03:52:23;;;;;;;4.43;3.10;;;9.30;99.90;;;;;;5081751;28;20036;-67
2022/12/20 03:54:49;;;;;;;5.38;3.50;;;9.40;99.90;;;;;;5131517;27;20385;-67
2022/12/20 03:57:15;;;;;;;5.53;3.30;;;9.40;99.90;;;;;;5064446;28;20161;-67
2022/12/20 03:59:42;;;;;;;3.40;3.00;;;9.40;99.90;;;;;;5081633;28;20046;-68
2022/12/20 04:02:08;;;;;;;4.30;2.95;;;9.40;99.90;;;;;;5081701;28;20092;-67
2022/12/20 04:04:34;;;;;;;5.32;3.33;;;9.40;99.90;;;;;;5080396;28;20040;-67
2022/12/20 04:06:59;;;;;;;6.95;3.50;;;9.40;99.90;;;;;;5115240;27;20481;-67
2022/12/20 04:09:25;;;;;;;7.53;3.65;;;9.40;99.90;;;;;;5082639;28;20446;-67
2022/12/20 04:11:51;;;;;;;4.50;3.40;;;9.40;99.90;;;;;;5116352;27;20088;-68
2022/12/20 04:14:16;;;;;;;4.65;3.55;;;9.40;99.90;;;;;;5115741;28;20040;-68
2022/12/20 04:16:42;;;;;;;6.72;3.55;;;9.40;99.90;;;;;;5085083;28;20050;-67
2022/12/20 04:19:07;;;;;;;5.78;3.75;;;9.40;99.90;;;;;;5085898;28;20031;-67
2022/12/20 04:21:34;;;;;;;6.63;4.15;;;9.30;99.90;;;;;;5090827;28;20095;-67
2022/12/20 04:24:02;;;;;;;4.78;3.60;;;9.40;99.90;;;;;;5121300;27;20040;-68
2022/12/20 04:26:27;;;;;;;6.28;3.38;;;9.40;99.90;;;;;;5118301;27;20046;-68
2022/12/20 04:28:53;;;;;;;5.13;3.30;;;9.30;99.90;;;;;;5087182;28;20418;-68
2022/12/20 04:31:19;;;;;;;6.65;3.55;;;9.30;99.90;;;;;;5115992;27;20047;-67
2022/12/20 04:33:45;;;;;;;5.47;3.55;;;9.30;99.90;;;;;;5107577;28;20556;-68
2022/12/20 04:36:11;;;;;;;4.30;3.60;;;9.40;99.90;;;;;;5103373;28;20073;-67
2022/12/20 04:38:37;;;;;;;6.38;3.75;;;9.30;99.90;;;;;;5090001;28;21096;-67
2022/12/20 04:41:02;;;;;;;4.32;3.30;;;9.30;99.90;;;;;;5074360;28;20503;-68
2022/12/20 04:43:28;;;;;;;5.13;3.22;;;9.40;99.90;;;;;;5070487;28;20496;-68
2022/12/20 04:45:56;;;;;;;5.40;3.30;;;9.30;99.90;;;;;;5072475;28;20047;-68
2022/12/20 04:48:27;;;;;;;3.78;3.30;;;9.40;99.90;;;;;;5073349;28;20023;-67
2022/12/20 04:50:55;;;;;;;4.38;3.20;;;9.40;99.90;;;;;;5085945;28;20055;-68
2022/12/20 04:56:07;;;;;;;4.60;3.05;;;9.40;99.90;;;;;;5110200;27;20040;-67
2022/12/20 04:58:32;;;;;;;5.03;3.35;;;9.50;99.90;;;;;;5118310;27;20475;-67
2022/12/20 05:00:58;;;;;;;3.83;3.10;;;9.50;99.90;;;;;;5083560;28;20047;-68
2022/12/20 05:03:25;;;;;;;3.53;2.70;;;9.50;99.90;;;;;;5115798;27;20058;-67
2022/12/20 05:05:51;;;;;;;6.13;3.20;;;9.60;99.90;;;;;;5089495;28;20055;-67
2022/12/20 05:08:17;;;;;;;4.70;2.90;;;9.60;99.90;;;;;;5105308;27;20055;-68
2022/12/20 05:10:43;;;;;;;5.20;3.10;;;9.60;99.90;;;;;;5092116;28;20619;-67
2022/12/20 05:13:09;;;;;;;5.03;3.00;;;9.60;99.90;;;;;;5085543;27;20047;-67
2022/12/20 05:15:35;;;;;;;4.30;2.92;;;9.60;99.90;;;;;;5121380;27;20272;-67
2022/12/20 05:18:01;;;;;;;5.13;3.22;;;9.70;99.90;;;;;;5121217;27;20057;-67
2022/12/20 05:20:29;;;;;;;4.55;3.05;;;9.70;99.90;;;;;;5068683;28;20059;-68
2022/12/20 05:28:29;;;;;;;4.57;2.53;;;9.70;99.90;;;;;;5122371;27;20039;-68
2022/12/20 05:30:55;;;;;;;6.07;2.60;;;9.70;99.90;;;;;;5085522;28;20409;-68
2022/12/20 05:33:21;;;;;;;3.85;2.83;;;9.80;99.90;;;;;;5085159;27;20035;-68
2022/12/20 05:35:46;;;;;;;3.55;2.70;;;9.80;99.90;;;;;;5088212;28;20035;-67
2022/12/20 05:38:12;;;;;;;4.13;2.50;;;9.80;99.90;;;;;;5115510;27;20682;-68
2022/12/20 05:40:38;;;;;;;5.95;3.38;;;9.80;99.90;;;;;;5117739;27;20409;-68
2022/12/20 05:43:05;;;;;;;5.25;2.75;;;9.80;99.90;;;;;;5082342;28;20039;-68
2022/12/20 05:45:31;;;;;;;4.55;2.63;;;9.90;99.90;;;;;;5117346;27;20040;-68
2022/12/20 05:47:56;;;;;;;5.18;2.90;;;9.90;99.90;;;;;;5116829;27;20042;-67
2022/12/20 05:50:22;;;;;;;4.57;2.60;;;9.90;99.90;;;;;;5098418;27;20059;-68
2022/12/20 05:52:48;;;;;;;3.38;2.60;;;10.00;99.90;;;;;;5102732;27;20603;-68
2022/12/20 05:55:13;;;;;;;4.28;2.80;;;10.00;99.90;;;;;;5088611;28;20049;-68
2022/12/20 05:57:39;;;;;;;7.78;2.95;;;10.00;99.90;;;;;;5089795;28;20493;-68
2022/12/20 06:00:07;;;;;;;6.93;3.20;;;10.00;99.90;;;;;;5118983;27;20760;-68
2022/12/20 06:02:32;;;;;;;6.05;2.72;;;10.00;99.90;;;;;;5080583;28;20498;-68
2022/12/20 06:04:58;;;;;;;4.30;3.15;;;10.00;99.90;;;;;;5102267;27;20059;-68
2022/12/20 06:07:24;;;;;;;3.42;2.67;;;10.10;99.90;;;;;;5124073;27;20428;-68
2022/12/20 06:09:50;;;;;;;6.47;2.80;;;10.10;99.90;;;;;;5088557;28;20039;-67
2022/12/20 06:12:16;;;;;;;7.20;3.03;;;10.10;99.90;;;;;;5093112;28;20062;-68
2022/12/20 06:14:42;;;;;;;5.63;3.30;;;10.10;99.90;;;;;;5074784;28;20086;-67
2022/12/20 06:17:07;;;;;;;4.05;3.00;;;10.10;99.90;;;;;;5093751;28;20375;-67
2022/12/20 06:19:33;;;;;;;4.07;3.10;;;10.10;99.90;;;;;;5090015;28;20137;-66
2022/12/20 06:22:00;;;;;;;6.53;3.10;;;10.10;99.90;;;;;;5125528;27;20547;-67
2022/12/20 06:24:26;;;;;;;3.63;2.92;;;10.10;99.90;;;;;;5126363;27;20043;-67
2022/12/20 06:26:52;;;;;;;4.45;2.90;;;10.10;99.90;;;;;;5106020;27;20115;-68
2022/12/20 06:29:19;;;;;;;4.60;3.20;;;10.10;99.90;;;;;;5126237;27;20114;-68
2022/12/20 06:31:46;;;;;;;5.80;3.70;;;10.00;99.90;;;;;;5106234;27;20047;-67
2022/12/20 06:34:12;;;;;;;5.97;3.60;;;10.00;99.90;;;;;;5120704;27;20051;-66
2022/12/20 06:36:38;;;;;;;5.35;3.88;;;9.90;99.90;;;;;;5084226;28;20031;-67
2022/12/20 06:39:04;;;;;;;5.07;3.13;;;9.90;99.90;;;;;;5124791;27;20417;-68
2022/12/20 06:41:29;;;;;;;4.25;3.83;;;9.90;99.90;;;;;;5125020;27;20035;-68
2022/12/20 06:43:55;;;;;;;3.58;3.22;;;9.90;99.90;;;;;;5091698;27;20538;-67
2022/12/20 06:46:21;;;;;;;4.18;3.70;;;9.90;99.90;;;;;;5124218;27;20090;-67
2022/12/20 06:48:46;;;;;;;5.60;3.92;;;9.90;99.90;;;;;;5083654;28;20050;-67
2022/12/20 06:51:12;;;;;;;4.63;3.92;;;9.90;99.90;;;;;;5091253;28;20043;-68
2022/12/20 06:53:38;;;;;;;5.93;4.05;;;9.90;99.90;;;;;;5125563;27;20088;-67
2022/12/20 06:56:04;;;;;;;6.05;4.13;;;9.90;99.90;;;;;;5089962;28;20502;-67
2022/12/20 06:58:29;;;;;;;5.90;3.85;;;9.80;99.90;;;;;;5124378;27;21781;-67
2022/12/20 07:00:55;;;;;;;5.50;4.47;;;9.80;99.90;;;;;;5088617;27;20120;-68
2022/12/20 07:03:21;;;;;;;5.32;4.18;;;9.90;99.90;;;;;;5092415;28;20057;-67
2022/12/20 07:05:52;;;;;;;5.68;3.97;;;9.80;99.90;;;;;;5092853;28;20049;-67
2022/12/20 07:08:18;;;;;;;6.13;4.25;;;9.80;99.90;;;;;;5110666;28;20118;-68
2022/12/20 07:10:44;;;;;;;5.38;4.38;;;9.90;99.90;;;;;;5092541;28;20071;-67
2022/12/20 07:13:09;;;;;;;5.32;3.92;;;9.80;99.90;;;;;;5092827;28;20071;-67
2022/12/20 07:15:35;;;;;;;6.80;4.40;;;9.90;99.90;;;;;;5092454;28;20106;-67
2022/12/20 07:18:02;;;;;;;5.93;3.67;;;9.90;99.90;;;;;;5109310;28;20071;-68
2022/12/20 07:20:28;;;;;;;5.72;4.20;;;9.90;99.90;;;;;;5126403;27;20522;-67
2022/12/20 07:22:54;;;;;;;6.05;3.97;;;9.90;99.90;;;;;;5089015;28;20464;-67
2022/12/20 07:25:19;;;;;;;5.97;4.45;;;9.90;99.90;;;;;;5074893;28;20048;-67
2022/12/20 07:27:48;;;;;;;5.63;4.40;;;9.90;99.90;;;;;;5091754;28;20032;-67
2022/12/20 07:30:15;;;;;;;6.53;5.00;;;9.90;99.90;;;;;;5109394;28;20351;-67
2022/12/20 07:32:41;;;;;;;6.05;4.05;;;9.90;99.90;;;;;;5091844;28;20054;-67
2022/12/20 07:35:09;;;;;;;7.40;4.22;;;9.90;99.90;;;;;;5091596;28;20150;-67
2022/12/20 07:37:35;;;;;;;7.90;3.83;;;9.90;99.90;;;;;;5109784;28;20482;-67
2022/12/20 07:40:00;;;;;;;4.50;3.50;;;9.90;99.90;;;;;;5074758;28;20051;-67
2022/12/20 07:42:26;;;;;;;6.53;3.47;;;9.90;99.90;;;;;;5091331;28;20035;-67
2022/12/20 07:44:52;;;;;;;5.65;3.72;;;9.90;99.90;;;;;;5091681;28;20040;-67
2022/12/20 07:47:17;;;;;;;4.15;3.70;;;9.90;99.90;;;;;;5074783;28;20528;-67
2022/12/20 07:49:43;;;;;;;5.15;3.65;;;9.90;99.90;;;;;;5074947;28;20038;-67
2022/12/20 07:52:11;;;;;;;5.38;3.45;;;9.90;99.90;;;;;;5074106;28;20104;-68
2022/12/20 07:54:44;;;;;;;6.00;3.35;;;9.90;99.90;;;;;;5090963;28;20052;-68
2022/12/20 07:57:17;;;;;;;6.57;3.92;;;9.90;99.90;;;;;;5091884;28;20024;-68
2022/12/20 07:59:46;;;;;;;;;;;10.00;99.90;;;;;;5092289;28;20039;-68
2022/12/20 08:02:20;;;;;;;4.95;3.25;;;10.00;99.90;;;;;;5092039;28;19926;-67
2022/12/20 08:04:46;;;;;;;5.13;3.67;;;10.00;99.90;;;;;;5091697;28;20040;-68
2022/12/20 08:07:12;;;;;;;6.47;3.17;;;10.10;99.90;;;;;;5126058;28;20043;-67
2022/12/20 08:09:42;;;;;;;5.25;3.20;;;10.10;99.90;;;;;;5091649;28;20036;-68
2022/12/20 08:12:11;;;;;;;5.20;3.30;;;10.10;99.90;;;;;;5108938;28;20482;-67
2022/12/20 08:14:37;;;;;;;4.75;2.67;;;10.10;99.90;;;;;;5091646;28;20061;-67
2022/12/20 08:17:02;;;;;;;4.25;3.20;;;10.10;99.90;;;;;;5091678;28;20525;-67
2022/12/20 08:19:28;;;;;;;6.63;3.20;;;10.10;99.90;;;;;;5091934;28;20089;-67
2022/12/20 08:21:54;;;;;;;3.65;2.83;;;10.10;99.90;;;;;;5074541;28;20093;-67
2022/12/20 08:24:19;;;;;;;5.75;3.20;;;10.10;99.90;;;;;;5092048;28;20078;-67
2022/12/20 08:26:45;;;;;;;5.00;2.88;;;10.10;99.90;;;;;;5075044;28;20046;-67
2022/12/20 08:29:11;;;;;;;5.10;3.10;;;10.20;99.90;;;;;;5091526;28;20056;-68
2022/12/20 08:31:38;;;;;;;4.53;2.85;;;10.20;99.90;;;;;;5091853;28;20035;-67
2022/12/20 08:34:05;;;;;;;5.60;2.70;;;10.20;99.90;;;;;;5126036;28;20529;-67
2022/12/20 08:36:30;;;;;;;4.18;2.70;;;10.10;99.90;;;;;;5091664;28;20044;-67
2022/12/20 08:38:56;;;;;;;5.80;2.53;;;10.10;99.90;;;;;;5091449;28;20050;-67
2022/12/20 08:41:21;;;;;;;4.00;2.38;;;10.20;99.90;;;;;;5094116;28;20044;-67
2022/12/20 08:43:47;;;;;;;4.68;2.50;;;10.20;99.90;;;;;;5095873;28;20551;-67
2022/12/20 08:46:13;;;;;;;3.92;2.90;;;10.20;99.90;;;;;;5095132;28;20051;-67
2022/12/20 08:48:39;;;;;;;3.95;2.35;;;10.20;99.90;;;;;;5095374;28;20043;-67
2022/12/20 08:51:07;;;;;;;3.28;2.63;;;10.20;99.90;;;;;;5129481;27;20501;-67
2022/12/20 08:53:34;;;;;;;4.20;2.50;;;10.30;99.90;;;;;;5095610;28;20078;-67
2022/12/20 08:56:18;;;;;;;5.00;2.70;;;10.30;99.90;;;;;;5129478;27;20537;-68
2022/12/20 08:58:46;;;;;;;4.15;2.50;;;10.40;99.90;;;;;;5129474;27;20042;-67
2022/12/20 09:01:17;;;;;;;3.88;2.30;;;10.40;99.90;;;;;;5129117;27;20043;-67
2022/12/20 09:03:43;;;;;;;6.38;2.40;;;10.40;99.90;;;;;;5129523;27;20043;-67
2022/12/20 09:06:15;;;;;;;4.25;2.00;;;10.40;99.90;;;;;;5094670;28;20052;-67
2022/12/20 09:08:41;;;;;;;3.63;2.20;;;10.40;99.90;;;;;;5129338;27;20035;-67
2022/12/20 09:11:13;;;;;;;5.20;2.30;;;10.50;99.90;;;;;;5094572;28;20042;-67
2022/12/20 09:13:40;;;;;;;3.88;2.20;;;10.50;99.90;;;;;;5091682;28;20039;-67
2022/12/20 09:16:07;;;;;;;3.80;2.05;;;10.40;99.90;;;;;;5128562;27;20051;-67
2022/12/20 09:18:33;;;;;;;5.00;2.03;;;10.40;99.90;;;;;;5094320;28;20043;-67
2022/12/20 09:21:03;;;;;;;3.63;2.40;;;10.40;99.90;;;;;;5128133;27;20213;-67
2022/12/20 09:23:30;;;;;;;3.45;2.22;;;10.40;99.90;;;;;;5128248;27;20122;-67
2022/12/20 09:26:02;;;;;;;3.42;2.10;;;10.40;99.90;;;;;;5128391;27;20050;-67
2022/12/20 09:28:28;;;;;;;5.82;2.10;;;10.40;99.90;;;;;;5128601;27;20042;-67
2022/12/20 09:31:01;;;;;;;4.75;2.58;;;10.30;99.90;;;;;;5093987;28;20040;-67
2022/12/20 09:33:27;;;;;;;5.45;3.10;;;10.30;99.90;;;;;;5128127;27;20130;-67
2022/12/20 09:35:53;;;;;;;4.38;2.75;;;10.40;99.90;;;;;;5094241;28;20039;-67
2022/12/20 09:38:19;;;;;;;5.28;2.42;;;10.30;99.90;;;;;;5094051;28;20047;-67
2022/12/20 09:40:47;;;;;;;3.67;2.70;;;10.40;99.90;;;;;;5094109;28;20044;-67
2022/12/20 09:43:15;;;;;;;4.07;2.53;;;10.30;99.90;;;;;;5127921;27;20043;-67
2022/12/20 09:45:41;;;;;;;4.00;2.28;;;10.30;99.90;;;;;;5093539;28;20409;-67
2022/12/20 09:48:18;;;;;;;3.42;2.30;;;10.30;99.90;;;;;;5076875;28;20130;-67
2022/12/20 09:51:21;;;;;;;5.30;2.95;;;10.30;99.90;;;;;;5127980;27;20393;-67
2022/12/20 09:54:03;;;;;;;5.10;2.15;;;10.20;99.90;;;;;;5093767;28;20032;-67
2022/12/20 09:56:36;;;;;;;4.68;2.53;;;10.20;99.90;;;;;;5093929;28;20042;-67
2022/12/20 09:59:10;;;;;;;4.57;2.53;;;10.30;99.90;;;;;;5128321;27;20177;-67
2022/12/20 10:01:36;;;;;;;4.25;2.30;;;10.20;99.90;;;;;;5127932;27;20088;-67
2022/12/20 10:04:32;;;;;;;6.13;2.58;;;10.20;99.90;;;;;;5094053;28;20453;-67
2022/12/20 10:07:18;;;;;;;3.38;2.28;;;10.20;99.90;;;;;;5032475;28;20049;-67
2022/12/20 10:09:44;;;;;;;6.00;2.42;;;10.20;99.90;;;;;;5032487;28;20036;-67
2022/12/20 10:12:46;;;;;;;6.18;2.60;;;10.10;99.90;;;;;;5032423;28;20048;-67
2022/12/20 10:15:22;;;;;;;3.53;2.20;;;10.10;99.90;;;;;;5015720;28;20528;-67
2022/12/20 10:18:05;;;;;;;5.03;2.80;;;10.10;99.90;;;;;;5048617;28;20111;-66
2022/12/20 10:20:43;;;;;;;3.47;2.15;;;10.10;99.90;;;;;;5032289;28;20037;-67
2022/12/20 10:23:22;;;;;;;5.45;2.15;;;10.10;99.90;;;;;;5050665;28;20395;-67
2022/12/20 10:25:50;;;;;;;4.53;2.72;;;10.10;99.90;;;;;;5085132;28;20431;-67
2022/12/20 10:28:18;;;;;;;4.90;2.65;;;10.00;99.90;;;;;;5068632;28;20072;-67
2022/12/20 10:30:44;;;;;;;4.75;2.40;;;10.00;99.90;;;;;;5085640;28;20501;-67
2022/12/20 10:33:20;;;;;;;4.53;2.45;;;10.00;99.90;;;;;;5085516;28;20052;-67
2022/12/20 10:35:46;;;;;;;4.80;2.97;;;9.90;99.90;;;;;;5085225;28;20174;-67
2022/12/20 10:38:16;;;;;;;4.97;2.80;;;9.90;99.90;;;;;;5085367;28;20061;-67
2022/12/20 10:40:51;;;;;;;5.88;2.72;;;9.90;99.90;;;;;;5085331;28;20443;-67
2022/12/20 10:43:22;;;;;;;5.30;3.08;;;9.90;99.90;;;;;;5102196;27;20105;-67
2022/12/20 10:46:00;;;;;;;5.88;2.85;;;9.90;99.90;;;;;;5089375;28;20032;-66
2022/12/20 10:48:36;;;;;;;4.22;2.65;;;9.90;99.90;;;;;;5089479;28;20169;-67
2022/12/20 10:51:11;;;;;;;6.00;2.80;;;9.90;99.90;;;;;;5089605;28;20044;-67
2022/12/20 10:54:02;;;;;;;3.22;2.38;;;10.00;99.90;;;;;;5089699;28;20126;-67
2022/12/20 10:56:31;;;;;;;4.45;2.67;;;10.00;99.90;;;;;;5089821;28;20144;-66
2022/12/20 10:58:59;;;;;;;5.65;2.72;;;10.00;99.90;;;;;;5089286;28;20040;-67
2022/12/20 11:01:34;;;;;;;3.75;2.72;;;10.00;99.90;;;;;;5089597;28;20069;-67
2022/12/20 11:04:01;;;;;;;5.45;2.78;;;10.00;99.90;;;;;;5079574;28;20036;-67
2022/12/20 11:06:39;;;;;;;5.57;2.67;;;10.00;99.90;;;;;;5105620;28;20071;-67
2022/12/20 11:09:21;;;;;;;6.68;3.10;;;10.00;99.90;;;;;;5072155;28;20420;-67
2022/12/20 11:12:12;;;;;;;5.82;2.75;;;10.00;99.90;;;;;;5072077;28;20371;-67
2022/12/20 11:14:39;;;;;;;6.65;2.72;;;10.00;99.90;;;;;;5072048;28;20111;-67
2022/12/20 11:17:13;;;;;;;4.57;2.60;;;10.00;99.90;;;;;;5105820;28;20081;-66
2022/12/20 11:20:07;;;;;;;4.20;2.80;;;10.00;99.90;;;;;;5071866;28;20036;-67
2022/12/20 11:22:41;;;;;;;5.15;3.63;;;10.10;99.90;;;;;;5085325;28;20414;-67
2022/12/20 11:25:07;;;;;;;6.13;2.97;;;10.10;99.90;;;;;;5091866;28;20177;-67
2022/12/20 11:27:39;;;;;;;4.15;2.72;;;10.10;99.90;;;;;;5091960;28;20531;-66
2022/12/20 11:30:21;;;;;;;5.13;2.70;;;10.10;99.90;;;;;;5092450;28;20036;-67
2022/12/20 11:32:51;;;;;;;;;;;10.10;99.90;;;;;;5092314;28;20036;-66
2022/12/20 11:35:41;;;;;;;4.93;2.67;;;10.10;99.90;;;;;;5091303;28;20301;-67
2022/12/20 11:38:34;;;;;;;5.13;3.13;;;10.00;99.90;;;;;;5091906;28;20062;-66
2022/12/20 11:41:27;;;;;;;4.57;2.85;;;10.10;99.90;;;;;;5092066;28;20096;-67
2022/12/20 11:44:14;;;;;;;6.03;2.80;;;10.10;99.90;;;;;;5092457;28;20028;-67
2022/12/20 11:46:43;;;;;;;4.63;2.80;;;10.10;99.90;;;;;;5092010;28;20036;-67
2022/12/20 11:49:21;;;;;;;3.88;2.67;;;10.10;99.90;;;;;;5091993;28;20035;-67
2022/12/20 11:52:05;;;;;;;4.85;2.55;;;10.10;99.90;;;;;;5091865;28;20142;-67
2022/12/20 11:54:53;;;;;;;5.18;2.58;;;10.10;99.90;;;;;;5109021;28;20035;-67
2022/12/20 11:57:26;;;;;;;5.32;3.30;;;10.00;99.90;;;;;;5091658;28;20032;-67
2022/12/20 11:59:57;;;;;;;3.97;2.75;;;10.00;99.90;;;;;;5125809;27;20070;-67
2022/12/20 12:02:34;;;;;;;6.28;2.90;;;10.00;99.90;;;;;;5091820;28;20051;-67
2022/12/20 12:05:06;;;;;;;3.88;2.63;;;10.00;99.90;;;;;;5089171;28;20043;-67
2022/12/20 12:07:35;;;;;;;6.82;3.00;;;10.00;99.90;;;;;;5125602;28;20042;-67
2022/12/20 12:10:18;;;;;;;4.22;3.08;;;10.00;99.90;;;;;;5126542;28;20549;-67
2022/12/20 12:13:16;;;;;;;3.80;3.10;;;10.00;99.90;;;;;;5108636;28;20051;-67
2022/12/20 12:16:19;;;;;;;3.65;2.97;;;10.00;99.90;;;;;;5092900;28;20097;-67
2022/12/20 12:18:44;;;;;;;;;;;10.00;99.90;;;;;;5096925;28;20088;-67
2022/12/20 12:21:21;;;;;;;5.95;2.90;;;10.00;99.90;;;;;;5096146;28;19920;-67
2022/12/20 12:24:22;;;;;;;4.97;3.22;;;10.00;99.90;;;;;;5130307;27;20052;-67
2022/12/20 12:26:47;;;;;;;4.25;2.90;;;10.00;99.90;;;;;;5130266;27;20044;-67
2022/12/20 12:29:19;;;;;;;5.95;3.22;;;10.00;99.90;;;;;;5096470;28;20043;-67
2022/12/20 12:32:07;;;;;;;3.30;3.00;;;10.00;99.90;;;;;;5130135;27;20028;-67
2022/12/20 12:34:54;;;;;;;5.90;3.15;;;10.00;99.90;;;;;;5095796;28;20050;-67
2022/12/20 12:37:25;;;;;;;5.72;3.35;;;10.00;99.90;;;;;;5096357;28;20036;-67
2022/12/20 12:39:57;;;;;;;6.35;3.45;;;10.00;99.90;;;;;;5096304;28;20031;-67
2022/12/20 12:42:56;;;;;;;6.78;3.35;;;10.10;99.90;;;;;;5096398;28;20046;-67
2022/12/20 12:45:40;;;;;;;4.30;3.45;;;10.10;99.90;;;;;;5096387;28;20067;-67
2022/12/20 12:48:33;;;;;;;6.78;4.40;;;10.10;99.90;;;;;;5130274;27;20039;-67
2022/12/20 12:51:01;;;;;;;5.22;3.47;;;10.10;99.90;;;;;;5096022;28;20031;-67
2022/12/20 12:53:51;;;;;;;6.93;3.80;;;10.00;99.90;;;;;;5130346;27;20085;-67
2022/12/20 12:56:29;;;;;;;7.85;4.20;;;10.00;99.90;;;;;;5130393;27;20422;-67
2022/12/20 12:59:08;;;;;;;5.43;3.83;;;10.00;99.90;;;;;;5112969;28;20035;-67
2022/12/20 13:01:54;;;;;;;7.78;4.00;;;10.00;99.90;;;;;;5130215;27;20064;-67
2022/12/20 13:04:21;;;;;;;5.55;3.85;;;10.00;99.90;;;;;;5130098;27;20124;-67
2022/12/20 13:06:47;;;;;;;9.63;4.43;;;10.00;99.90;;;;;;5129720;27;20035;-67
2022/12/20 13:09:24;;;;;;;4.53;4.13;;;10.00;99.90;;;;;;5092776;28;20067;-67
2022/12/20 13:11:51;;;;;;;9.23;4.35;;;10.00;99.90;;;;;;5095008;28;20050;-67
2022/12/20 13:14:16;;;;;;;5.78;4.53;;;10.00;99.90;;;;;;5112281;28;20027;-67
2022/12/20 13:17:12;;;;;;;5.68;4.30;;;10.00;99.90;;;;;;5095559;28;20032;-67